Argusville, North Dakota
Current Conditions -  °F | °C
As of 3:53 PM on Thursday 23 Oct 2014 (Local Time) from KFAR Reporting Station
Clear Clear  
Wind Chill: 71°   Ceiling: Unl
Heat Index: 71°   Visibility: 10mi
Dew Point: 36°   Wind: 17mph
Humidity: 28%   Direction: 200°SSW
Pressure: 29.84"   Gusts: NA
Location:  47.05°N, 96.93°W
Report Text: KFAR 232053Z 20015KT 10SM CLR 22/02 A2984 RMK AO2 SLP107 T02170022 56019
Loading
Personal Weather Stations






























Interactive Weather Map
Tropical Storm Tracking
New forecast layout! Learn more

10-Day Weather Forecast

Advertisements
Track Severe Weather on mobile